David B — WDI7661 — position and weather

sailwx.info

Track history (hours):
 
Tides and Currents Weather Stations Pressure Air Temp Water Temp Dewpoint Dewpoint Depression Visibility Wind Speed Wind Dir Waves Ship Positions

David B

Owner: G & H TOWING COMPANY, Galveston, TX. More information available from US FCC via Universal Licensing System and Coast Guard Vessel Documentation Center.

Last reported at 2017-Nov-19 02:28 UTC. Time now 2017-Nov-19 02:48 UTC.
Position N 29°37' W 095°01'.

Length 24 m; draft 5.4 m.

Type: Tug. MMSI: 367730910.

Date/timePositionNaut miles runAvg speedWind from/ knotsBaromVisibWave heightAir tempDewpointWater temp
2017-Nov-19 02:28N 29°37' W 095°01'0 0.0
2017-Nov-19 01:58N 29°37' W 095°01'0 0.0
2017-Nov-19 01:28N 29°37' W 095°01'0 0.0
2017-Nov-19 00:55N 29°37' W 095°01'0 0.0
2017-Nov-19 00:30N 29°37' W 095°01'3 5.6
2017-Nov-19 00:00N 29°38' W 094°58'3 6.0
2017-Nov-18 23:30N 29°41' W 094°60'0 0.2
2017-Nov-18 23:00N 29°41' W 094°60'0 0.1
2017-Nov-18 22:30N 29°41' W 094°60'1 1.4
2017-Nov-18 22:01N 29°42' W 094°60'4 7.2
2017-Nov-18 21:29N 29°44' W 095°03'0 0.1
2017-Nov-18 20:44N 29°44' W 095°03'2 7.2
2017-Nov-18 20:28N 29°43' W 095°01'1 1.1
2017-Nov-18 20:00N 29°42' W 095°01'0 0.0
2017-Nov-18 19:30N 29°42' W 095°01'1 2.8
2017-Nov-18 19:00N 29°44' W 095°01'1 0.7
2017-Nov-18 17:43N 29°43' W 095°01'2 7.7
2017-Nov-18 17:28N 29°42' W 094°60'4 8.7
2017-Nov-18 17:00N 29°38' W 094°58'3 5.2
2017-Nov-18 16:30N 29°37' W 095°00'0 0.0
2017-Nov-18 16:00N 29°37' W 095°00'0 0.0
2017-Nov-18 15:27N 29°37' W 095°00'0 0.3
2017-Nov-18 15:00N 29°37' W 095°00'0 0.3
2017-Nov-18 14:31N 29°37' W 095°00'1 1.9
2017-Nov-18 14:00N 29°37' W 095°01'1 1.1
2017-Nov-18 13:30N 29°37' W 095°01'0 1.0
2017-Nov-18 13:00N 29°37' W 095°00'3 5.8
2017-Nov-18 12:30N 29°39' W 094°58'2 4.5
2017-Nov-18 12:00N 29°41' W 094°60'1 2.6
2017-Nov-18 11:30N 29°40' W 094°58'3 6.7
2017-Nov-18 11:00N 29°37' W 094°59'2 3.0
2017-Nov-18 10:30N 29°36' W 095°01'0 0.0
2017-Nov-18 10:00N 29°36' W 095°01'0 0.0
2017-Nov-18 09:24N 29°36' W 095°01'0 0.0
2017-Nov-18 09:00N 29°36' W 095°01'0 0.0
2017-Nov-18 08:30N 29°36' W 095°01'0 0.0
2017-Nov-18 08:00N 29°36' W 095°01'0 0.0
2017-Nov-18 07:30N 29°36' W 095°01'0 0.0
2017-Nov-18 07:00N 29°36' W 095°01'0 0.0
2017-Nov-18 06:30N 29°36' W 095°01'1 1.1
2017-Nov-18 05:59N 29°37' W 095°02'0 0.0
2017-Nov-18 05:26N 29°37' W 095°02'0 0.6
2017-Nov-18 05:00N 29°37' W 095°01'0 0.2
2017-Nov-18 04:30N 29°37' W 095°01'0 0.6
2017-Nov-18 04:00N 29°37' W 095°01'0 0.0
2017-Nov-18 03:30N 29°37' W 095°01'0 0.0
2017-Nov-18 03:00N 29°37' W 095°01'0 0.0
2017-Nov-18 02:30N 29°37' W 095°01'0 0.0
2017-Nov-18 02:00N 29°37' W 095°01'0 0.0
2017-Nov-18 01:30N 29°37' W 095°01'0 0.0
2017-Nov-18 01:00N 29°37' W 095°01'0 0.0
2017-Nov-18 00:27N 29°37' W 095°01'0 0.0
2017-Nov-18 00:00N 29°37' W 095°01'0 0.0
2017-Nov-17 23:30N 29°37' W 095°01'0 0.0
2017-Nov-17 23:00N 29°37' W 095°01'0 0.0
2017-Nov-17 22:30N 29°37' W 095°01'0 0.0
2017-Nov-17 22:00N 29°37' W 095°01'0 0.0
2017-Nov-17 21:30N 29°37' W 095°01'0 0.0
2017-Nov-17 21:00N 29°37' W 095°01'0 0.0
2017-Nov-17 20:30N 29°37' W 095°01'1 2.1
2017-Nov-17 20:00N 29°37' W 094°60'1 2.7
2017-Nov-17 19:31N 29°37' W 094°58'2 3.1
2017-Nov-17 19:00N 29°37' W 095°00'1 1.7
2017-Nov-17 18:30N 29°37' W 095°01'0 0.0
2017-Nov-17 17:58N 29°37' W 095°01'0 0.0
2017-Nov-17 17:28N 29°37' W 095°01'0 0.0
2017-Nov-17 16:58N 29°37' W 095°01'0 0.0
2017-Nov-17 16:30N 29°37' W 095°01'0 0.9
2017-Nov-17 16:00N 29°37' W 095°02'0 0.8
2017-Nov-17 15:30N 29°37' W 095°01'0 0.0
2017-Nov-17 15:00N 29°37' W 095°01'0 0.0
2017-Nov-17 14:30N 29°37' W 095°01'0 0.0
2017-Nov-17 14:00N 29°37' W 095°01'0 0.0
2017-Nov-17 13:30N 29°37' W 095°01'0 0.0
2017-Nov-17 13:00N 29°37' W 095°01'0 0.0
2017-Nov-17 12:27N 29°37' W 095°01'0 0.0
2017-Nov-17 12:00N 29°37' W 095°01'0 0.0
2017-Nov-17 11:30N 29°37' W 095°01'0 0.0
2017-Nov-17 11:00N 29°37' W 095°01'0 0.0
2017-Nov-17 10:30N 29°37' W 095°01'0 0.0
2017-Nov-17 10:00N 29°37' W 095°01'0 0.0
2017-Nov-17 09:30N 29°37' W 095°01'0 0.0
2017-Nov-17 09:00N 29°37' W 095°01'0 0.0
2017-Nov-17 08:30N 29°37' W 095°01'0 0.0
2017-Nov-17 08:00N 29°37' W 095°01'0 0.0
2017-Nov-17 07:30N 29°37' W 095°01'0 0.0
2017-Nov-17 07:00N 29°37' W 095°01'0 0.1
2017-Nov-17 06:30N 29°37' W 095°01'0 0.7
2017-Nov-17 06:00N 29°37' W 095°01'0 0.7
2017-Nov-17 05:30N 29°37' W 095°01'0 0.0
2017-Nov-17 05:00N 29°37' W 095°01'0 0.0
2017-Nov-17 04:30N 29°37' W 095°01'0 0.0
2017-Nov-17 04:00N 29°37' W 095°01'0 0.0
2017-Nov-17 03:30N 29°37' W 095°01'0 0.0
2017-Nov-17 03:00N 29°37' W 095°01'0 0.0
2017-Nov-17 02:30N 29°37' W 095°01'0 0.0
2017-Nov-17 01:57N 29°37' W 095°01'0 0.0
2017-Nov-17 01:30N 29°37' W 095°01'2 3.3
2017-Nov-17 01:00N 29°37' W 094°59'3 6.0
2017-Nov-17 00:30N 29°40' W 094°58'5 3.2
2017-Nov-16 23:05N 29°44' W 095°01'1 4.3
2017-Nov-16 22:49N 29°42' W 095°01'0 0.5
2017-Nov-16 22:30N 29°42' W 095°01'0 0.1
2017-Nov-16 21:57N 29°42' W 095°01'0 0.1
2017-Nov-16 21:02N 29°42' W 095°01'0 6.1
2017-Nov-16 21:00N 29°42' W 095°01'1 1.0
2017-Nov-16 19:32N 29°44' W 095°01'0 0.7
2017-Nov-16 19:30N 29°44' W 095°01'2 3.6
2017-Nov-16 19:00N 29°42' W 095°00'1 1.7
2017-Nov-16 18:30N 29°42' W 095°01'2 3.8
2017-Nov-16 17:57N 29°44' W 095°03'1 0.5
2017-Nov-16 16:04N 29°44' W 095°02'2 7.6
2017-Nov-16 15:51N 29°42' W 095°01'2 4.2
2017-Nov-16 15:21N 29°41' W 094°59'0 0.5
2017-Nov-16 15:01N 29°41' W 094°59'0 0.4
2017-Nov-16 14:31N 29°41' W 094°59'1 1.6
2017-Nov-16 14:01N 29°41' W 095°00'0 0.1
2017-Nov-16 13:30N 29°41' W 095°00'0 0.1
2017-Nov-16 13:00N 29°41' W 095°00'1 2.1
2017-Nov-16 12:30N 29°42' W 094°60'4 7.7
2017-Nov-16 12:00N 29°44' W 095°03'2 0.4
2017-Nov-16 07:33N 29°44' W 095°01'0 2.0
2017-Nov-16 07:30N 29°44' W 095°01'0 0.3
2017-Nov-16 06:57N 29°44' W 095°01'3 7.1
2017-Nov-16 06:30N 29°41' W 094°59'0 0.7
2017-Nov-16 05:57N 29°41' W 094°59'0 0.0
2017-Nov-16 05:03N 29°41' W 094°59'0 0.0
2017-Nov-16 05:00N 29°41' W 094°59'0 0.0
2017-Nov-16 04:30N 29°41' W 094°59'0 0.0
2017-Nov-16 03:15N 29°41' W 094°59'0 0.0
2017-Nov-16 02:57N 29°41' W 094°59'0 0.6
2017-Nov-16 02:31N 29°41' W 094°59'1 0.4
2017-Nov-16 00:45N 29°41' W 095°00'0 0.7
2017-Nov-16 00:19N 29°41' W 094°60'0 0.0
2017-Nov-15 23:58N 29°41' W 094°60'0 0.0
2017-Nov-15 23:28N 29°41' W 094°60'0 0.0
2017-Nov-15 22:55N 29°41' W 094°60'0 0.0
2017-Nov-15 22:28N 29°41' W 094°60'0 0.0
2017-Nov-15 21:58N 29°41' W 094°60'0 0.0
2017-Nov-15 21:25N 29°41' W 094°60'0 0.0
2017-Nov-15 20:52N 29°41' W 094°60'0 0.4
2017-Nov-15 20:25N 29°41' W 094°60'0 0.7
2017-Nov-15 19:58N 29°41' W 095°00'2 3.4
2017-Nov-15 19:30N 29°40' W 094°59'1 1.5
2017-Nov-15 18:47N 29°41' W 094°60'0 0.4
2017-Nov-15 18:30N 29°41' W 094°60'0 0.2
2017-Nov-15 18:00N 29°41' W 094°60'0 0.3
2017-Nov-15 17:30N 29°41' W 094°60'3 5.6
2017-Nov-15 16:57N 29°44' W 095°01'0 0.1
2017-Nov-15 16:30N 29°44' W 095°01'0 0.0
2017-Nov-15 15:58N 29°44' W 095°01'1 1.7
2017-Nov-15 15:25N 29°43' W 095°01'1 0.8
2017-Nov-15 14:44N 29°42' W 095°01'0 0.1
2017-Nov-15 14:24N 29°42' W 095°01'0 0.0
2017-Nov-15 14:00N 29°42' W 095°01'0 0.0
2017-Nov-15 13:27N 29°42' W 095°01'0 0.0
2017-Nov-15 12:57N 29°42' W 095°01'2 4.7
2017-Nov-15 12:31N 29°41' W 094°59'1 1.7
2017-Nov-15 12:00N 29°41' W 095°00'1 2.3
2017-Nov-15 11:28N 29°40' W 094°59'4 7.9
2017-Nov-15 11:00N 29°37' W 094°59'2 3.2
2017-Nov-15 10:29N 29°37' W 095°00'0 0.0
2017-Nov-15 09:50N 29°37' W 095°00'0 0.0
2017-Nov-15 09:08N 29°37' W 095°00'0 0.0
2017-Nov-15 08:56N 29°37' W 095°00'0 0.0
2017-Nov-15 08:26N 29°37' W 095°00'0 0.0
2017-Nov-15 07:56N 29°37' W 095°00'2 5.4
2017-Nov-15 07:30N 29°37' W 094°58'2 3.5
2017-Nov-15 07:00N 29°37' W 094°60'0 0.9
2017-Nov-15 06:30N 29°37' W 095°00'1 1.3
2017-Nov-15 06:01N 29°37' W 095°01'0 0.0
2017-Nov-15 05:30N 29°37' W 095°01'0 0.0
2017-Nov-15 05:00N 29°37' W 095°01'0 0.0
2017-Nov-15 04:30N 29°37' W 095°01'0 0.0
2017-Nov-15 04:00N 29°37' W 095°01'0 0.0
2017-Nov-15 03:30N 29°37' W 095°01'0 0.0
2017-Nov-15 03:00N 29°37' W 095°01'0 0.0
2017-Nov-15 02:30N 29°37' W 095°01'0 0.0
2017-Nov-15 02:00N 29°37' W 095°01'0 0.7
2017-Nov-15 01:29N 29°37' W 095°02'0 0.1
2017-Nov-15 01:00N 29°37' W 095°01'1 1.4
2017-Nov-15 00:30N 29°37' W 095°01'0 0.8
2017-Nov-14 23:58N 29°37' W 095°01'0 0.0
2017-Nov-14 23:28N 29°37' W 095°01'0 0.0
2017-Nov-14 22:55N 29°37' W 095°01'0 0.0
2017-Nov-14 22:28N 29°37' W 095°01'0 0.0
2017-Nov-14 21:55N 29°37' W 095°01'0 0.0
2017-Nov-14 21:25N 29°37' W 095°01'0 0.0
2017-Nov-14 20:58N 29°37' W 095°01'0 0.0
2017-Nov-14 20:25N 29°37' W 095°01'0 0.0
2017-Nov-14 19:58N 29°37' W 095°01'0 0.0
2017-Nov-14 19:28N 29°37' W 095°01'1 2.1
2017-Nov-14 18:46N 29°37' W 094°59'0 1.4
2017-Nov-14 18:30N 29°37' W 094°59'1 3.0
2017-Nov-14 18:00N 29°38' W 094°58'4 7.2
2017-Nov-14 17:30N 29°41' W 094°60'0 0.0
2017-Nov-14 16:54N 29°41' W 094°60'0 0.0
2017-Nov-14 16:21N 29°41' W 094°60'0 0.0
2017-Nov-14 16:00N 29°41' W 094°60'0 0.0
2017-Nov-14 15:18N 29°41' W 094°60'0 0.0
2017-Nov-14 14:48N 29°41' W 094°60'0 0.0
2017-Nov-14 14:30N 29°41' W 094°60'0 0.0
2017-Nov-14 14:00N 29°41' W 094°60'0 0.0
2017-Nov-14 13:30N 29°41' W 094°60'0 0.0
2017-Nov-14 13:00N 29°41' W 094°60'0 0.0
2017-Nov-14 12:09N 29°41' W 094°60'0 0.0
2017-Nov-14 11:21N 29°41' W 094°60'0 0.0
2017-Nov-14 11:00N 29°41' W 094°60'0 0.0
2017-Nov-14 10:30N 29°41' W 094°60'0 0.0
2017-Nov-14 10:00N 29°41' W 094°60'0 0.0
2017-Nov-14 09:30N 29°41' W 094°60'0 0.0
2017-Nov-14 08:30N 29°41' W 094°60'0 0.0
2017-Nov-14 08:00N 29°41' W 094°60'0 0.0
2017-Nov-14 07:27N 29°41' W 094°60'0 0.0
2017-Nov-14 06:00N 29°41' W 094°60'0 0.0
2017-Nov-14 05:30N 29°41' W 094°60'0 0.0
2017-Nov-14 05:00N 29°41' W 094°60'0 0.0
2017-Nov-14 04:30N 29°41' W 094°60'0 0.0
2017-Nov-14 04:00N 29°41' W 094°60'0 0.0
2017-Nov-14 03:27N 29°41' W 094°60'0 0.0
2017-Nov-14 02:54N 29°41' W 094°60'0 0.0
2017-Nov-14 02:30N 29°41' W 094°60'0 0.0
2017-Nov-14 02:00N 29°41' W 094°60'0 0.0
2017-Nov-14 01:30N 29°41' W 094°60'3 6.1
2017-Nov-14 01:00N 29°38' W 094°58'3 5.8
2017-Nov-14 00:31N 29°37' W 095°01'0 0.9
2017-Nov-14 00:00N 29°37' W 095°01'0 0.0
2017-Nov-13 23:27N 29°37' W 095°01'0 0.9
2017-Nov-13 23:01N 29°37' W 095°01'0 0.5
2017-Nov-13 22:30N 29°37' W 095°01'1 1.9
2017-Nov-13 22:00N 29°37' W 095°00'6 0.3
2017-Nov-13 02:00N 29°42' W 095°01'0 0.0
2017-Nov-13 01:28N 29°42' W 095°01'0 0.0
2017-Nov-13 00:58N 29°42' W 095°01'0 0.0
2017-Nov-13 00:28N 29°42' W 095°01'0 0.0
2017-Nov-12 23:52N 29°42' W 095°01'0 0.0
2017-Nov-12 23:27N 29°42' W 095°01'0 0.0
2017-Nov-12 22:43N 29°42' W 095°01'0 0.0
2017-Nov-12 22:31N 29°42' W 095°01'0 0.0
2017-Nov-12 21:46N 29°42' W 095°01'0 0.0
2017-Nov-12 21:30N 29°42' W 095°01'0 0.0
2017-Nov-12 20:57N 29°42' W 095°01'0 0.0
2017-Nov-12 20:25N 29°42' W 095°01'1 1.6
2017-Nov-12 19:35N 29°44' W 095°01'0 0.4
2017-Nov-12 19:30N 29°44' W 095°01'1 2.7
2017-Nov-12 19:00N 29°42' W 095°01'0 0.0
2017-Nov-12 18:29N 29°42' W 095°01'0 0.0
2017-Nov-12 17:59N 29°42' W 095°01'0 0.0
2017-Nov-12 17:25N 29°42' W 095°01'0 0.0
2017-Nov-12 17:00N 29°42' W 095°01'1 2.1
2017-Nov-12 16:26N 29°43' W 095°01'2 4.5
2017-Nov-12 15:54N 29°42' W 094°59'2 4.0
2017-Nov-12 15:26N 29°40' W 094°58'3 7.1
2017-Nov-12 15:00N 29°37' W 094°58'3 4.6
2017-Nov-12 14:26N 29°37' W 095°01'0 0.0
2017-Nov-12 13:59N 29°37' W 095°01'0 0.0
2017-Nov-12 13:29N 29°37' W 095°01'0 0.0
2017-Nov-12 12:59N 29°37' W 095°01'0 0.0
2017-Nov-12 12:29N 29°37' W 095°01'0 0.7
2017-Nov-12 12:00N 29°37' W 095°01'0 0.0
2017-Nov-12 11:30N 29°37' W 095°01'1 1.2
2017-Nov-12 11:00N 29°37' W 095°00'1 1.1
2017-Nov-12 10:30N 29°37' W 095°01'0 0.0
2017-Nov-12 10:00N 29°37' W 095°01'0 0.0
2017-Nov-12 09:30N 29°37' W 095°01'0 0.0
2017-Nov-12 09:00N 29°37' W 095°01'0 0.0
2017-Nov-12 08:30N 29°37' W 095°01'0 0.0
2017-Nov-12 08:00N 29°37' W 095°01'0 0.0
2017-Nov-12 07:27N 29°37' W 095°01'0 0.0
2017-Nov-12 06:57N 29°37' W 095°01'0 0.0
2017-Nov-12 06:30N 29°37' W 095°01'0 0.8
2017-Nov-12 06:00N 29°37' W 095°01'0 0.8
2017-Nov-12 05:31N 29°37' W 095°01'0 0.0
2017-Nov-12 04:58N 29°37' W 095°01'0 0.0
2017-Nov-12 04:28N 29°37' W 095°01'0 0.0
2017-Nov-12 03:58N 29°37' W 095°01'0 0.0
2017-Nov-12 03:28N 29°37' W 095°01'0 0.0
2017-Nov-12 02:58N 29°37' W 095°01'0 0.0
2017-Nov-12 02:28N 29°37' W 095°01'0 0.0
2017-Nov-12 01:55N 29°37' W 095°01'0 0.0
2017-Nov-12 01:28N 29°37' W 095°01'0 0.0
2017-Nov-12 00:55N 29°37' W 095°01'0 0.0
2017-Nov-12 00:14N 29°37' W 095°01'0 1.6
2017-Nov-12 00:00N 29°37' W 095°02'0 0.0
2017-Nov-11 23:29N 29°37' W 095°02'0 0.0
2017-Nov-11 23:00N 29°37' W 095°02'0 0.8
2017-Nov-11 22:30N 29°37' W 095°01'0 0.0
2017-Nov-11 21:55N 29°37' W 095°01'0 0.0
2017-Nov-11 21:28N 29°37' W 095°01'0 0.0
2017-Nov-11 20:58N 29°37' W 095°01'0 0.0
2017-Nov-11 20:28N 29°37' W 095°01'0 0.0
2017-Nov-11 19:58N 29°37' W 095°01'0 0.0
2017-Nov-11 19:28N 29°37' W 095°01'0 0.0
2017-Nov-11 18:58N 29°37' W 095°01'0 0.0
2017-Nov-11 18:28N 29°37' W 095°01'0 0.0
2017-Nov-11 17:58N 29°37' W 095°01'0 0.0
2017-Nov-11 17:28N 29°37' W 095°01'0 0.0
2017-Nov-11 16:58N 29°37' W 095°01'0 0.0
2017-Nov-11 16:25N 29°37' W 095°01'0 0.0
2017-Nov-11 15:58N 29°37' W 095°01'0 0.0
2017-Nov-11 15:28N 29°37' W 095°01'0 0.0
2017-Nov-11 14:58N 29°37' W 095°01'0 0.0
2017-Nov-11 14:25N 29°37' W 095°01'0 0.0
2017-Nov-11 13:58N 29°37' W 095°01'0 0.0
2017-Nov-11 13:25N 29°37' W 095°01'0 0.0
2017-Nov-11 12:55N 29°37' W 095°01'0 0.0
2017-Nov-11 12:28N 29°37' W 095°01'1 2.0
2017-Nov-11 12:00N 29°37' W 095°00'0 0.6
2017-Nov-11 11:29N 29°37' W 095°00'1 1.4
2017-Nov-11 11:00N 29°37' W 095°01'1 2.6
2017-Nov-11 10:30N 29°37' W 094°60'0 0.6
2017-Nov-11 09:59N 29°37' W 095°00'0 0.0
2017-Nov-11 09:27N 29°37' W 095°00'2 5.3
2017-Nov-11 09:00N 29°38' W 094°58'5 9.0
2017-Nov-11 08:30N 29°42' W 095°00'3 6.8
2017-Nov-11 08:00N 29°44' W 095°03'2 1.1
2017-Nov-11 06:03N 29°46' W 095°05'0 0.2
2017-Nov-11 06:00N 29°46' W 095°05'2 2.1
2017-Nov-11 05:08N 29°45' W 095°07'5 0.5
2017-Nov-10 18:09N 29°43' W 095°01'1 0.9
2017-Nov-10 17:12N 29°44' W 095°01'1 3.0
2017-Nov-10 16:48N 29°42' W 095°01'2 7.7
2017-Nov-10 16:30N 29°41' W 094°59'1 0.2
2017-Nov-10 13:49N 29°41' W 094°60'0 1.1
2017-Nov-10 13:31N 29°41' W 094°59'1 1.9
2017-Nov-10 13:00N 29°41' W 095°00'0 0.3
2017-Nov-10 12:17N 29°41' W 095°00'0 0.0
2017-Nov-10 11:32N 29°41' W 095°00'0 0.1
2017-Nov-10 11:26N 29°41' W 095°00'0 0.4
2017-Nov-10 10:58N 29°41' W 094°60'0 0.9
2017-Nov-10 10:30N 29°41' W 094°59'0 0.3
2017-Nov-10 10:00N 29°41' W 094°60'0 0.0
2017-Nov-10 09:30N 29°41' W 094°60'0 0.0
2017-Nov-10 08:51N 29°41' W 094°60'0 0.0
2017-Nov-10 08:30N 29°41' W 094°60'1 1.2
2017-Nov-10 08:00N 29°41' W 094°59'3 0.9
2017-Nov-10 04:34N 29°44' W 095°01'0 0.0
2017-Nov-10 04:10N 29°44' W 095°01'1 7.9
2017-Nov-10 03:59N 29°44' W 095°03'1 0.5
2017-Nov-10 01:21N 29°44' W 095°01'0 0.0
2017-Nov-10 01:00N 29°44' W 095°01'0 0.0
2017-Nov-10 00:30N 29°44' W 095°01'1 2.9
2017-Nov-09 23:59N 29°42' W 095°01'0 0.1
2017-Nov-09 23:28N 29°42' W 095°01'0 0.0
2017-Nov-09 22:19N 29°42' W 095°01'0 0.0
2017-Nov-09 21:58N 29°42' W 095°01'0 0.0
2017-Nov-09 21:28N 29°42' W 095°01'0 0.0
2017-Nov-09 20:58N 29°42' W 095°01'0 0.0
2017-Nov-09 20:28N 29°42' W 095°01'0 0.1
2017-Nov-09 20:00N 29°42' W 095°01'1 2.3
2017-Nov-09 19:26N 29°44' W 095°01'0 0.8
2017-Nov-09 18:57N 29°43' W 095°01'4 7.7
2017-Nov-09 18:27N 29°40' W 094°59'3 7.4
2017-Nov-09 18:00N 29°37' W 094°59'2 3.5
2017-Nov-09 17:29N 29°37' W 095°01'0 0.0
2017-Nov-09 16:59N 29°37' W 095°01'0 0.0
2017-Nov-09 16:29N 29°37' W 095°01'0 0.0
2017-Nov-09 15:59N 29°37' W 095°01'0 0.0
2017-Nov-09 15:29N 29°37' W 095°01'0 0.0
2017-Nov-09 15:00N 29°37' W 095°01'3 6.3
2017-Nov-09 14:30N 29°38' W 094°58'4 7.6
2017-Nov-09 14:00N 29°41' W 095°00'0 0.2
2017-Nov-09 13:27N 29°41' W 095°00'1 2.4
2017-Nov-09 13:00N 29°41' W 094°59'3 6.2
2017-Nov-09 12:30N 29°38' W 094°58'2 4.6
2017-Nov-09 12:00N 29°37' W 095°00'1 1.8
2017-Nov-09 11:30N 29°36' W 095°01'0 0.0
2017-Nov-09 11:00N 29°36' W 095°01'0 0.0
2017-Nov-09 10:30N 29°36' W 095°01'0 0.0
2017-Nov-09 10:00N 29°36' W 095°01'0 0.0
2017-Nov-09 09:30N 29°36' W 095°01'0 0.5
2017-Nov-09 09:00N 29°37' W 095°01'0 0.4
2017-Nov-09 08:30N 29°36' W 095°01'0 0.1
2017-Nov-09 07:59N 29°36' W 095°01'0 0.0
2017-Nov-09 07:29N 29°36' W 095°01'0 0.0
2017-Nov-09 06:59N 29°36' W 095°01'0 0.0
2017-Nov-09 06:29N 29°36' W 095°01'0 0.0
2017-Nov-09 05:59N 29°36' W 095°01'0 0.0
2017-Nov-09 05:29N 29°36' W 095°01'0 0.0
2017-Nov-09 04:59N 29°36' W 095°01'0 0.3
2017-Nov-09 04:30N 29°37' W 095°01'2 3.0
2017-Nov-09 04:00N 29°37' W 094°59'0 0.0
2017-Nov-09 03:21N 29°37' W 094°59'2 4.7
2017-Nov-09 03:00N 29°37' W 095°01'0 0.0
2017-Nov-09 02:30N 29°37' W 095°01'  
Track history (hours):
 
Tides and Currents Weather Stations Pressure Air Temp Water Temp Dewpoint Dewpoint Depression Visibility Wind Speed Wind Dir Waves Ship Positions

David B

Owner: G & H TOWING COMPANY, Galveston, TX. More information available from US FCC via Universal Licensing System and Coast Guard Vessel Documentation Center.

Last reported at 2017-Nov-19 02:28 UTC. Time now 2017-Nov-19 02:48 UTC.
Position N 29°37' W 095°01'.

Length 24 m; draft 5.4 m.

Type: Tug. MMSI: 367730910.

Date/timePositionNaut miles runAvg speedWind from/ knotsBaromVisibWave heightAir tempDewpointWater temp
2017-Nov-19 02:28N 29°37' W 095°01'0 0.0
2017-Nov-19 01:58N 29°37' W 095°01'0 0.0
2017-Nov-19 01:28N 29°37' W 095°01'0 0.0
2017-Nov-19 00:55N 29°37' W 095°01'0 0.0
2017-Nov-19 00:30N 29°37' W 095°01'3 5.6
2017-Nov-19 00:00N 29°38' W 094°58'3 6.0
2017-Nov-18 23:30N 29°41' W 094°60'0 0.2
2017-Nov-18 23:00N 29°41' W 094°60'0 0.1
2017-Nov-18 22:30N 29°41' W 094°60'1 1.4
2017-Nov-18 22:01N 29°42' W 094°60'4 7.2
2017-Nov-18 21:29N 29°44' W 095°03'0 0.1
2017-Nov-18 20:44N 29°44' W 095°03'2 7.2
2017-Nov-18 20:28N 29°43' W 095°01'1 1.1
2017-Nov-18 20:00N 29°42' W 095°01'0 0.0
2017-Nov-18 19:30N 29°42' W 095°01'1 2.8
2017-Nov-18 19:00N 29°44' W 095°01'1 0.7
2017-Nov-18 17:43N 29°43' W 095°01'2 7.7
2017-Nov-18 17:28N 29°42' W 094°60'4 8.7
2017-Nov-18 17:00N 29°38' W 094°58'3 5.2
2017-Nov-18 16:30N 29°37' W 095°00'0 0.0
2017-Nov-18 16:00N 29°37' W 095°00'0 0.0
2017-Nov-18 15:27N 29°37' W 095°00'0 0.3
2017-Nov-18 15:00N 29°37' W 095°00'0 0.3
2017-Nov-18 14:31N 29°37' W 095°00'1 1.9
2017-Nov-18 14:00N 29°37' W 095°01'1 1.1
2017-Nov-18 13:30N 29°37' W 095°01'0 1.0
2017-Nov-18 13:00N 29°37' W 095°00'3 5.8
2017-Nov-18 12:30N 29°39' W 094°58'2 4.5
2017-Nov-18 12:00N 29°41' W 094°60'1 2.6
2017-Nov-18 11:30N 29°40' W 094°58'3 6.7
2017-Nov-18 11:00N 29°37' W 094°59'2 3.0
2017-Nov-18 10:30N 29°36' W 095°01'0 0.0
2017-Nov-18 10:00N 29°36' W 095°01'0 0.0
2017-Nov-18 09:24N 29°36' W 095°01'0 0.0
2017-Nov-18 09:00N 29°36' W 095°01'0 0.0
2017-Nov-18 08:30N 29°36' W 095°01'0 0.0
2017-Nov-18 08:00N 29°36' W 095°01'0 0.0
2017-Nov-18 07:30N 29°36' W 095°01'0 0.0
2017-Nov-18 07:00N 29°36' W 095°01'0 0.0
2017-Nov-18 06:30N 29°36' W 095°01'1 1.1
2017-Nov-18 05:59N 29°37' W 095°02'0 0.0
2017-Nov-18 05:26N 29°37' W 095°02'0 0.6
2017-Nov-18 05:00N 29°37' W 095°01'0 0.2
2017-Nov-18 04:30N 29°37' W 095°01'0 0.6
2017-Nov-18 04:00N 29°37' W 095°01'0 0.0
2017-Nov-18 03:30N 29°37' W 095°01'0 0.0
2017-Nov-18 03:00N 29°37' W 095°01'0 0.0
2017-Nov-18 02:30N 29°37' W 095°01'0 0.0
2017-Nov-18 02:00N 29°37' W 095°01'0 0.0
2017-Nov-18 01:30N 29°37' W 095°01'0 0.0
2017-Nov-18 01:00N 29°37' W 095°01'0 0.0
2017-Nov-18 00:27N 29°37' W 095°01'0 0.0
2017-Nov-18 00:00N 29°37' W 095°01'0 0.0
2017-Nov-17 23:30N 29°37' W 095°01'0 0.0
2017-Nov-17 23:00N 29°37' W 095°01'0 0.0
2017-Nov-17 22:30N 29°37' W 095°01'0 0.0
2017-Nov-17 22:00N 29°37' W 095°01'0 0.0
2017-Nov-17 21:30N 29°37' W 095°01'0 0.0
2017-Nov-17 21:00N 29°37' W 095°01'0 0.0
2017-Nov-17 20:30N 29°37' W 095°01'1 2.1
2017-Nov-17 20:00N 29°37' W 094°60'1 2.7
2017-Nov-17 19:31N 29°37' W 094°58'2 3.1
2017-Nov-17 19:00N 29°37' W 095°00'1 1.7
2017-Nov-17 18:30N 29°37' W 095°01'0 0.0
2017-Nov-17 17:58N 29°37' W 095°01'0 0.0
2017-Nov-17 17:28N 29°37' W 095°01'0 0.0
2017-Nov-17 16:58N 29°37' W 095°01'0 0.0
2017-Nov-17 16:30N 29°37' W 095°01'0 0.9
2017-Nov-17 16:00N 29°37' W 095°02'0 0.8
2017-Nov-17 15:30N 29°37' W 095°01'0 0.0
2017-Nov-17 15:00N 29°37' W 095°01'0 0.0
2017-Nov-17 14:30N 29°37' W 095°01'0 0.0
2017-Nov-17 14:00N 29°37' W 095°01'0 0.0
2017-Nov-17 13:30N 29°37' W 095°01'0 0.0
2017-Nov-17 13:00N 29°37' W 095°01'0 0.0
2017-Nov-17 12:27N 29°37' W 095°01'0 0.0
2017-Nov-17 12:00N 29°37' W 095°01'0 0.0
2017-Nov-17 11:30N 29°37' W 095°01'0 0.0
2017-Nov-17 11:00N 29°37' W 095°01'0 0.0
2017-Nov-17 10:30N 29°37' W 095°01'0 0.0
2017-Nov-17 10:00N 29°37' W 095°01'0 0.0
2017-Nov-17 09:30N 29°37' W 095°01'0 0.0
2017-Nov-17 09:00N 29°37' W 095°01'0 0.0
2017-Nov-17 08:30N 29°37' W 095°01'0 0.0
2017-Nov-17 08:00N 29°37' W 095°01'0 0.0
2017-Nov-17 07:30N 29°37' W 095°01'0 0.0
2017-Nov-17 07:00N 29°37' W 095°01'0 0.1
2017-Nov-17 06:30N 29°37' W 095°01'0 0.7
2017-Nov-17 06:00N 29°37' W 095°01'0 0.7
2017-Nov-17 05:30N 29°37' W 095°01'0 0.0
2017-Nov-17 05:00N 29°37' W 095°01'0 0.0
2017-Nov-17 04:30N 29°37' W 095°01'0 0.0
2017-Nov-17 04:00N 29°37' W 095°01'0 0.0
2017-Nov-17 03:30N 29°37' W 095°01'0 0.0
2017-Nov-17 03:00N 29°37' W 095°01'0 0.0
2017-Nov-17 02:30N 29°37' W 095°01'0 0.0
2017-Nov-17 01:57N 29°37' W 095°01'0 0.0
2017-Nov-17 01:30N 29°37' W 095°01'2 3.3
2017-Nov-17 01:00N 29°37' W 094°59'3 6.0
2017-Nov-17 00:30N 29°40' W 094°58'5 3.2
2017-Nov-16 23:05N 29°44' W 095°01'1 4.3
2017-Nov-16 22:49N 29°42' W 095°01'0 0.5
2017-Nov-16 22:30N 29°42' W 095°01'0 0.1
2017-Nov-16 21:57N 29°42' W 095°01'0 0.1
2017-Nov-16 21:02N 29°42' W 095°01'0 6.1
2017-Nov-16 21:00N 29°42' W 095°01'1 1.0
2017-Nov-16 19:32N 29°44' W 095°01'0 0.7
2017-Nov-16 19:30N 29°44' W 095°01'2 3.6
2017-Nov-16 19:00N 29°42' W 095°00'1 1.7
2017-Nov-16 18:30N 29°42' W 095°01'2 3.8
2017-Nov-16 17:57N 29°44' W 095°03'1 0.5
2017-Nov-16 16:04N 29°44' W 095°02'2 7.6
2017-Nov-16 15:51N 29°42' W 095°01'2 4.2
2017-Nov-16 15:21N 29°41' W 094°59'0 0.5
2017-Nov-16 15:01N 29°41' W 094°59'0 0.4
2017-Nov-16 14:31N 29°41' W 094°59'1 1.6
2017-Nov-16 14:01N 29°41' W 095°00'0 0.1
2017-Nov-16 13:30N 29°41' W 095°00'0 0.1
2017-Nov-16 13:00N 29°41' W 095°00'1 2.1
2017-Nov-16 12:30N 29°42' W 094°60'4 7.7
2017-Nov-16 12:00N 29°44' W 095°03'2 0.4
2017-Nov-16 07:33N 29°44' W 095°01'0 2.0
2017-Nov-16 07:30N 29°44' W 095°01'0 0.3
2017-Nov-16 06:57N 29°44' W 095°01'3 7.1
2017-Nov-16 06:30N 29°41' W 094°59'0 0.7
2017-Nov-16 05:57N 29°41' W 094°59'0 0.0
2017-Nov-16 05:03N 29°41' W 094°59'0 0.0
2017-Nov-16 05:00N 29°41' W 094°59'0 0.0
2017-Nov-16 04:30N 29°41' W 094°59'0 0.0
2017-Nov-16 03:15N 29°41' W 094°59'0 0.0
2017-Nov-16 02:57N 29°41' W 094°59'0 0.6
2017-Nov-16 02:31N 29°41' W 094°59'1 0.4
2017-Nov-16 00:45N 29°41' W 095°00'0 0.7
2017-Nov-16 00:19N 29°41' W 094°60'0 0.0
2017-Nov-15 23:58N 29°41' W 094°60'0 0.0
2017-Nov-15 23:28N 29°41' W 094°60'0 0.0
2017-Nov-15 22:55N 29°41' W 094°60'0 0.0
2017-Nov-15 22:28N 29°41' W 094°60'0 0.0
2017-Nov-15 21:58N 29°41' W 094°60'0 0.0
2017-Nov-15 21:25N 29°41' W 094°60'0 0.0
2017-Nov-15 20:52N 29°41' W 094°60'0 0.4
2017-Nov-15 20:25N 29°41' W 094°60'0 0.7
2017-Nov-15 19:58N 29°41' W 095°00'2 3.4
2017-Nov-15 19:30N 29°40' W 094°59'1 1.5
2017-Nov-15 18:47N 29°41' W 094°60'0 0.4
2017-Nov-15 18:30N 29°41' W 094°60'0 0.2
2017-Nov-15 18:00N 29°41' W 094°60'0 0.3
2017-Nov-15 17:30N 29°41' W 094°60'3 5.6
2017-Nov-15 16:57N 29°44' W 095°01'0 0.1
2017-Nov-15 16:30N 29°44' W 095°01'0 0.0
2017-Nov-15 15:58N 29°44' W 095°01'1 1.7
2017-Nov-15 15:25N 29°43' W 095°01'1 0.8
2017-Nov-15 14:44N 29°42' W 095°01'0 0.1
2017-Nov-15 14:24N 29°42' W 095°01'0 0.0
2017-Nov-15 14:00N 29°42' W 095°01'0 0.0
2017-Nov-15 13:27N 29°42' W 095°01'0 0.0
2017-Nov-15 12:57N 29°42' W 095°01'2 4.7
2017-Nov-15 12:31N 29°41' W 094°59'1 1.7
2017-Nov-15 12:00N 29°41' W 095°00'1 2.3
2017-Nov-15 11:28N 29°40' W 094°59'4 7.9
2017-Nov-15 11:00N 29°37' W 094°59'2 3.2
2017-Nov-15 10:29N 29°37' W 095°00'0 0.0
2017-Nov-15 09:50N 29°37' W 095°00'0 0.0
2017-Nov-15 09:08N 29°37' W 095°00'0 0.0
2017-Nov-15 08:56N 29°37' W 095°00'0 0.0
2017-Nov-15 08:26N 29°37' W 095°00'0 0.0
2017-Nov-15 07:56N 29°37' W 095°00'2 5.4
2017-Nov-15 07:30N 29°37' W 094°58'2 3.5
2017-Nov-15 07:00N 29°37' W 094°60'0 0.9
2017-Nov-15 06:30N 29°37' W 095°00'1 1.3
2017-Nov-15 06:01N 29°37' W 095°01'0 0.0
2017-Nov-15 05:30N 29°37' W 095°01'0 0.0
2017-Nov-15 05:00N 29°37' W 095°01'0 0.0
2017-Nov-15 04:30N 29°37' W 095°01'0 0.0
2017-Nov-15 04:00N 29°37' W 095°01'0 0.0
2017-Nov-15 03:30N 29°37' W 095°01'0 0.0
2017-Nov-15 03:00N 29°37' W 095°01'0 0.0
2017-Nov-15 02:30N 29°37' W 095°01'0 0.0
2017-Nov-15 02:00N 29°37' W 095°01'0 0.7
2017-Nov-15 01:29N 29°37' W 095°02'0 0.1
2017-Nov-15 01:00N 29°37' W 095°01'1 1.4
2017-Nov-15 00:30N 29°37' W 095°01'0 0.8
2017-Nov-14 23:58N 29°37' W 095°01'0 0.0
2017-Nov-14 23:28N 29°37' W 095°01'0 0.0
2017-Nov-14 22:55N 29°37' W 095°01'0 0.0
2017-Nov-14 22:28N 29°37' W 095°01'0 0.0
2017-Nov-14 21:55N 29°37' W 095°01'0 0.0
2017-Nov-14 21:25N 29°37' W 095°01'0 0.0
2017-Nov-14 20:58N 29°37' W 095°01'0 0.0
2017-Nov-14 20:25N 29°37' W 095°01'0 0.0
2017-Nov-14 19:58N 29°37' W 095°01'0 0.0
2017-Nov-14 19:28N 29°37' W 095°01'1 2.1
2017-Nov-14 18:46N 29°37' W 094°59'0 1.4
2017-Nov-14 18:30N 29°37' W 094°59'1 3.0
2017-Nov-14 18:00N 29°38' W 094°58'4 7.2
2017-Nov-14 17:30N 29°41' W 094°60'0 0.0
2017-Nov-14 16:54N 29°41' W 094°60'0 0.0
2017-Nov-14 16:21N 29°41' W 094°60'0 0.0
2017-Nov-14 16:00N 29°41' W 094°60'0 0.0
2017-Nov-14 15:18N 29°41' W 094°60'0 0.0
2017-Nov-14 14:48N 29°41' W 094°60'0 0.0
2017-Nov-14 14:30N 29°41' W 094°60'0 0.0
2017-Nov-14 14:00N 29°41' W 094°60'0 0.0
2017-Nov-14 13:30N 29°41' W 094°60'0 0.0
2017-Nov-14 13:00N 29°41' W 094°60'0 0.0
2017-Nov-14 12:09N 29°41' W 094°60'0 0.0
2017-Nov-14 11:21N 29°41' W 094°60'0 0.0
2017-Nov-14 11:00N 29°41' W 094°60'0 0.0
2017-Nov-14 10:30N 29°41' W 094°60'0 0.0
2017-Nov-14 10:00N 29°41' W 094°60'0 0.0
2017-Nov-14 09:30N 29°41' W 094°60'0 0.0
2017-Nov-14 08:30N 29°41' W 094°60'0 0.0
2017-Nov-14 08:00N 29°41' W 094°60'0 0.0
2017-Nov-14 07:27N 29°41' W 094°60'0 0.0
2017-Nov-14 06:00N 29°41' W 094°60'0 0.0
2017-Nov-14 05:30N 29°41' W 094°60'0 0.0
2017-Nov-14 05:00N 29°41' W 094°60'0 0.0
2017-Nov-14 04:30N 29°41' W 094°60'0 0.0
2017-Nov-14 04:00N 29°41' W 094°60'0 0.0
2017-Nov-14 03:27N 29°41' W 094°60'0 0.0
2017-Nov-14 02:54N 29°41' W 094°60'0 0.0
2017-Nov-14 02:30N 29°41' W 094°60'0 0.0
2017-Nov-14 02:00N 29°41' W 094°60'0 0.0
2017-Nov-14 01:30N 29°41' W 094°60'3 6.1
2017-Nov-14 01:00N 29°38' W 094°58'3 5.8
2017-Nov-14 00:31N 29°37' W 095°01'0 0.9
2017-Nov-14 00:00N 29°37' W 095°01'0 0.0
2017-Nov-13 23:27N 29°37' W 095°01'0 0.9
2017-Nov-13 23:01N 29°37' W 095°01'0 0.5
2017-Nov-13 22:30N 29°37' W 095°01'1 1.9
2017-Nov-13 22:00N 29°37' W 095°00'6 0.3
2017-Nov-13 02:00N 29°42' W 095°01'0 0.0
2017-Nov-13 01:28N 29°42' W 095°01'0 0.0
2017-Nov-13 00:58N 29°42' W 095°01'0 0.0
2017-Nov-13 00:28N 29°42' W 095°01'0 0.0
2017-Nov-12 23:52N 29°42' W 095°01'0 0.0
2017-Nov-12 23:27N 29°42' W 095°01'0 0.0
2017-Nov-12 22:43N 29°42' W 095°01'0 0.0
2017-Nov-12 22:31N 29°42' W 095°01'0 0.0
2017-Nov-12 21:46N 29°42' W 095°01'0 0.0
2017-Nov-12 21:30N 29°42' W 095°01'0 0.0
2017-Nov-12 20:57N 29°42' W 095°01'0 0.0
2017-Nov-12 20:25N 29°42' W 095°01'1 1.6
2017-Nov-12 19:35N 29°44' W 095°01'0 0.4
2017-Nov-12 19:30N 29°44' W 095°01'1 2.7
2017-Nov-12 19:00N 29°42' W 095°01'0 0.0
2017-Nov-12 18:29N 29°42' W 095°01'0 0.0
2017-Nov-12 17:59N 29°42' W 095°01'0 0.0
2017-Nov-12 17:25N 29°42' W 095°01'0 0.0
2017-Nov-12 17:00N 29°42' W 095°01'1 2.1
2017-Nov-12 16:26N 29°43' W 095°01'2 4.5
2017-Nov-12 15:54N 29°42' W 094°59'2 4.0
2017-Nov-12 15:26N 29°40' W 094°58'3 7.1
2017-Nov-12 15:00N 29°37' W 094°58'3 4.6
2017-Nov-12 14:26N 29°37' W 095°01'0 0.0
2017-Nov-12 13:59N 29°37' W 095°01'0 0.0
2017-Nov-12 13:29N 29°37' W 095°01'0 0.0
2017-Nov-12 12:59N 29°37' W 095°01'0 0.0
2017-Nov-12 12:29N 29°37' W 095°01'0 0.7
2017-Nov-12 12:00N 29°37' W 095°01'0 0.0
2017-Nov-12 11:30N 29°37' W 095°01'1 1.2
2017-Nov-12 11:00N 29°37' W 095°00'1 1.1
2017-Nov-12 10:30N 29°37' W 095°01'0 0.0
2017-Nov-12 10:00N 29°37' W 095°01'0 0.0
2017-Nov-12 09:30N 29°37' W 095°01'0 0.0
2017-Nov-12 09:00N 29°37' W 095°01'0 0.0
2017-Nov-12 08:30N 29°37' W 095°01'0 0.0
2017-Nov-12 08:00N 29°37' W 095°01'0 0.0
2017-Nov-12 07:27N 29°37' W 095°01'0 0.0
2017-Nov-12 06:57N 29°37' W 095°01'0 0.0
2017-Nov-12 06:30N 29°37' W 095°01'0 0.8
2017-Nov-12 06:00N 29°37' W 095°01'0 0.8
2017-Nov-12 05:31N 29°37' W 095°01'0 0.0
2017-Nov-12 04:58N 29°37' W 095°01'0 0.0
2017-Nov-12 04:28N 29°37' W 095°01'0 0.0
2017-Nov-12 03:58N 29°37' W 095°01'0 0.0
2017-Nov-12 03:28N 29°37' W 095°01'0 0.0
2017-Nov-12 02:58N 29°37' W 095°01'0 0.0
2017-Nov-12 02:28N 29°37' W 095°01'0 0.0
2017-Nov-12 01:55N 29°37' W 095°01'0 0.0
2017-Nov-12 01:28N 29°37' W 095°01'0 0.0
2017-Nov-12 00:55N 29°37' W 095°01'0 0.0
2017-Nov-12 00:14N 29°37' W 095°01'0 1.6
2017-Nov-12 00:00N 29°37' W 095°02'0 0.0
2017-Nov-11 23:29N 29°37' W 095°02'0 0.0
2017-Nov-11 23:00N 29°37' W 095°02'0 0.8
2017-Nov-11 22:30N 29°37' W 095°01'0 0.0
2017-Nov-11 21:55N 29°37' W 095°01'0 0.0
2017-Nov-11 21:28N 29°37' W 095°01'0 0.0
2017-Nov-11 20:58N 29°37' W 095°01'0 0.0
2017-Nov-11 20:28N 29°37' W 095°01'0 0.0
2017-Nov-11 19:58N 29°37' W 095°01'0 0.0
2017-Nov-11 19:28N 29°37' W 095°01'0 0.0
2017-Nov-11 18:58N 29°37' W 095°01'0 0.0
2017-Nov-11 18:28N 29°37' W 095°01'0 0.0
2017-Nov-11 17:58N 29°37' W 095°01'0 0.0
2017-Nov-11 17:28N 29°37' W 095°01'0 0.0
2017-Nov-11 16:58N 29°37' W 095°01'0 0.0
2017-Nov-11 16:25N 29°37' W 095°01'0 0.0
2017-Nov-11 15:58N 29°37' W 095°01'0 0.0
2017-Nov-11 15:28N 29°37' W 095°01'0 0.0
2017-Nov-11 14:58N 29°37' W 095°01'0 0.0
2017-Nov-11 14:25N 29°37' W 095°01'0 0.0
2017-Nov-11 13:58N 29°37' W 095°01'0 0.0
2017-Nov-11 13:25N 29°37' W 095°01'0 0.0
2017-Nov-11 12:55N 29°37' W 095°01'0 0.0
2017-Nov-11 12:28N 29°37' W 095°01'1 2.0
2017-Nov-11 12:00N 29°37' W 095°00'0 0.6
2017-Nov-11 11:29N 29°37' W 095°00'1 1.4
2017-Nov-11 11:00N 29°37' W 095°01'1 2.6
2017-Nov-11 10:30N 29°37' W 094°60'0 0.6
2017-Nov-11 09:59N 29°37' W 095°00'0 0.0
2017-Nov-11 09:27N 29°37' W 095°00'2 5.3
2017-Nov-11 09:00N 29°38' W 094°58'5 9.0
2017-Nov-11 08:30N 29°42' W 095°00'3 6.8
2017-Nov-11 08:00N 29°44' W 095°03'2 1.1
2017-Nov-11 06:03N 29°46' W 095°05'0 0.2
2017-Nov-11 06:00N 29°46' W 095°05'2 2.1
2017-Nov-11 05:08N 29°45' W 095°07'5 0.5
2017-Nov-10 18:09N 29°43' W 095°01'1 0.9
2017-Nov-10 17:12N 29°44' W 095°01'1 3.0
2017-Nov-10 16:48N 29°42' W 095°01'2 7.7
2017-Nov-10 16:30N 29°41' W 094°59'1 0.2
2017-Nov-10 13:49N 29°41' W 094°60'0 1.1
2017-Nov-10 13:31N 29°41' W 094°59'1 1.9
2017-Nov-10 13:00N 29°41' W 095°00'0 0.3
2017-Nov-10 12:17N 29°41' W 095°00'0 0.0
2017-Nov-10 11:32N 29°41' W 095°00'0 0.1
2017-Nov-10 11:26N 29°41' W 095°00'0 0.4
2017-Nov-10 10:58N 29°41' W 094°60'0 0.9
2017-Nov-10 10:30N 29°41' W 094°59'0 0.3
2017-Nov-10 10:00N 29°41' W 094°60'0 0.0
2017-Nov-10 09:30N 29°41' W 094°60'0 0.0
2017-Nov-10 08:51N 29°41' W 094°60'0 0.0
2017-Nov-10 08:30N 29°41' W 094°60'1 1.2
2017-Nov-10 08:00N 29°41' W 094°59'3 0.9
2017-Nov-10 04:34N 29°44' W 095°01'0 0.0
2017-Nov-10 04:10N 29°44' W 095°01'1 7.9
2017-Nov-10 03:59N 29°44' W 095°03'1 0.5
2017-Nov-10 01:21N 29°44' W 095°01'0 0.0
2017-Nov-10 01:00N 29°44' W 095°01'0 0.0
2017-Nov-10 00:30N 29°44' W 095°01'1 2.9
2017-Nov-09 23:59N 29°42' W 095°01'0 0.1
2017-Nov-09 23:28N 29°42' W 095°01'0 0.0
2017-Nov-09 22:19N 29°42' W 095°01'0 0.0
2017-Nov-09 21:58N 29°42' W 095°01'0 0.0
2017-Nov-09 21:28N 29°42' W 095°01'0 0.0
2017-Nov-09 20:58N 29°42' W 095°01'0 0.0
2017-Nov-09 20:28N 29°42' W 095°01'0 0.1
2017-Nov-09 20:00N 29°42' W 095°01'1 2.3
2017-Nov-09 19:26N 29°44' W 095°01'0 0.8
2017-Nov-09 18:57N 29°43' W 095°01'4 7.7
2017-Nov-09 18:27N 29°40' W 094°59'3 7.4
2017-Nov-09 18:00N 29°37' W 094°59'2 3.5
2017-Nov-09 17:29N 29°37' W 095°01'0 0.0
2017-Nov-09 16:59N 29°37' W 095°01'0 0.0
2017-Nov-09 16:29N 29°37' W 095°01'0 0.0
2017-Nov-09 15:59N 29°37' W 095°01'0 0.0
2017-Nov-09 15:29N 29°37' W 095°01'0 0.0
2017-Nov-09 15:00N 29°37' W 095°01'3 6.3
2017-Nov-09 14:30N 29°38' W 094°58'4 7.6
2017-Nov-09 14:00N 29°41' W 095°00'0 0.2
2017-Nov-09 13:27N 29°41' W 095°00'1 2.4
2017-Nov-09 13:00N 29°41' W 094°59'3 6.2
2017-Nov-09 12:30N 29°38' W 094°58'2 4.6
2017-Nov-09 12:00N 29°37' W 095°00'1 1.8
2017-Nov-09 11:30N 29°36' W 095°01'0 0.0
2017-Nov-09 11:00N 29°36' W 095°01'0 0.0
2017-Nov-09 10:30N 29°36' W 095°01'0 0.0
2017-Nov-09 10:00N 29°36' W 095°01'0 0.0
2017-Nov-09 09:30N 29°36' W 095°01'0 0.5
2017-Nov-09 09:00N 29°37' W 095°01'0 0.4
2017-Nov-09 08:30N 29°36' W 095°01'0 0.1
2017-Nov-09 07:59N 29°36' W 095°01'0 0.0
2017-Nov-09 07:29N 29°36' W 095°01'0 0.0
2017-Nov-09 06:59N 29°36' W 095°01'0 0.0
2017-Nov-09 06:29N 29°36' W 095°01'0 0.0
2017-Nov-09 05:59N 29°36' W 095°01'0 0.0
2017-Nov-09 05:29N 29°36' W 095°01'0 0.0
2017-Nov-09 04:59N 29°36' W 095°01'0 0.3
2017-Nov-09 04:30N 29°37' W 095°01'2 3.0
2017-Nov-09 04:00N 29°37' W 094°59'0 0.0
2017-Nov-09 03:21N 29°37' W 094°59'2 4.7
2017-Nov-09 03:00N 29°37' W 095°01'0 0.0
2017-Nov-09 02:30N 29°37' W 095°01'  

Dump ship's entire track history